Time;durP1;ratioP1;P1;durP2;ratioP2;P2;SDS_P1;SDS_P2;PMS_P1;PMS_P2;Temp;Humidity;BMP_temperature;BMP_pressure;BME280_temperature;BME280_humidity;BME280_pressure;Samples;Min_cycle;Max_cycle;Signal;HPM_P1;HPM_P2
2022/01/15 00:02:37;;;;;;;0.97;0.77;;;3.80;99.90;3.90;97560.00;;;;5006013;28;20486;-73
2022/01/15 00:05:27;;;;;;;0.30;0.30;;;4.00;99.90;4.20;97554.00;;;;5006606;28;20429;-74
2022/01/15 00:08:17;;;;;;;0.93;0.80;;;4.20;99.90;3.80;97546.00;;;;5007616;28;20793;-73
2022/01/15 00:11:06;;;;;;;0.97;0.80;;;4.20;99.90;3.00;97550.00;;;;5007994;28;20449;-73
2022/01/15 00:13:58;;;;;;;1.13;0.63;;;4.00;99.90;3.60;97550.00;;;;5009475;28;20798;-73
2022/01/15 00:16:49;;;;;;;0.63;0.63;;;3.90;99.90;3.20;97547.00;;;;5006012;28;20425;-74
2022/01/15 00:19:42;;;;;;;1.47;0.90;;;3.90;99.90;2.60;97546.00;;;;5007292;28;20661;-73
2022/01/15 00:22:31;;;;;;;1.10;1.00;;;3.60;99.90;3.00;97553.00;;;;5006354;28;20975;-73
2022/01/15 00:25:23;;;;;;;0.70;0.70;;;3.50;99.90;2.90;97553.00;;;;5006613;28;20431;-73
2022/01/15 00:28:13;;;;;;;1.17;0.60;;;3.50;99.90;3.40;97555.00;;;;5008193;28;20472;-73
2022/01/15 00:31:02;;;;;;;0.60;0.60;;;3.60;99.90;4.20;97551.00;;;;5006974;28;20448;-73
2022/01/15 00:33:51;;;;;;;3.07;0.60;;;3.90;99.90;3.80;97561.00;;;;5008239;28;20429;-74
2022/01/15 00:36:40;;;;;;;0.80;0.60;;;4.10;99.90;3.10;97559.00;;;;5006094;28;20437;-74
2022/01/15 00:39:29;;;;;;;0.50;0.50;;;3.90;99.90;3.30;97562.00;;;;5007112;28;20440;-73
2022/01/15 00:42:19;;;;;;;0.40;0.40;;;3.80;99.90;3.40;97554.00;;;;5007432;28;20465;-72
2022/01/15 00:45:16;;;;;;;0.40;0.40;;;3.80;99.90;4.10;97569.00;;;;5005396;28;20443;-75
2022/01/15 00:48:05;;;;;;;0.53;0.50;;;4.10;99.90;4.20;97572.00;;;;5007104;28;21126;-74
2022/01/15 00:50:55;;;;;;;0.80;0.60;;;4.20;99.90;4.30;97571.00;;;;5005539;28;20433;-71
2022/01/15 00:53:43;;;;;;;0.50;0.30;;;4.40;99.90;4.30;97572.00;;;;5007145;28;20432;-73
2022/01/15 00:56:33;;;;;;;0.40;0.40;;;4.60;99.90;4.40;97595.00;;;;5006172;28;20425;-73
2022/01/15 00:59:23;;;;;;;0.40;0.40;;;4.60;99.90;4.40;97582.00;;;;4996846;28;20430;-73
2022/01/15 01:02:12;;;;;;;0.40;0.40;;;4.70;99.90;4.30;97592.00;;;;5001555;28;20449;-71
2022/01/15 01:05:01;;;;;;;0.40;0.40;;;4.70;99.90;4.00;97590.00;;;;5006952;28;20426;-72
2022/01/15 01:07:50;;;;;;;0.97;0.97;;;4.60;99.90;3.50;97578.00;;;;5007428;28;20468;-73
2022/01/15 01:10:51;;;;;;;0.40;0.40;;;4.40;99.90;3.20;97593.00;;;;5005083;28;20432;-73
2022/01/15 01:20:08;;;;;;;1.33;0.93;;;3.70;99.90;2.80;97586.00;;;;5006133;28;20807;-73
2022/01/15 01:22:58;;;;;;;0.33;0.33;;;3.60;99.90;2.70;97601.00;;;;5006902;28;20456;-73
2022/01/15 01:25:50;;;;;;;1.43;1.00;;;3.40;99.90;2.90;97603.00;;;;5005619;28;20422;-72
2022/01/15 01:28:44;;;;;;;1.00;0.70;;;3.40;99.90;2.50;97615.00;;;;5006046;28;21035;-74
2022/01/15 01:31:40;;;;;;;0.50;0.50;;;3.30;99.90;3.00;97612.00;;;;5005774;28;20445;-73
2022/01/15 01:34:35;;;;;;;1.03;0.53;;;3.30;99.90;3.00;97621.00;;;;5007008;28;20951;-74
2022/01/15 01:37:32;;;;;;;0.43;0.43;;;3.30;99.90;2.90;97631.00;;;;5005996;28;20959;-74
2022/01/15 01:40:26;;;;;;;0.50;0.50;;;3.30;99.90;2.70;97610.00;;;;5001666;28;20449;-73
2022/01/15 01:46:37;;;;;;;0.90;0.73;;;3.20;99.90;2.60;97628.00;;;;4986895;28;20424;-73
2022/01/15 01:49:26;;;;;;;1.07;0.90;;;3.10;99.90;2.50;97631.00;;;;4993669;28;20958;-74
2022/01/15 01:52:17;;;;;;;0.77;0.77;;;3.00;99.90;2.40;97627.00;;;;5005516;28;21220;-74
2022/01/15 01:55:08;;;;;;;0.57;0.50;;;2.90;99.90;2.20;97623.00;;;;5005184;28;20452;-73
2022/01/15 01:57:59;;;;;;;0.40;0.40;;;2.80;99.90;2.10;97634.00;;;;4996264;28;20863;-71
2022/01/15 02:00:48;;;;;;;0.33;0.33;;;2.70;99.90;2.40;97633.00;;;;5006613;28;20928;-74
2022/01/15 02:03:37;;;;;;;0.57;0.50;;;2.70;99.90;2.70;97637.00;;;;5002418;28;20446;-72
2022/01/15 02:06:26;;;;;;;0.40;0.40;;;2.70;99.90;2.80;97642.00;;;;5005439;28;20421;-74
2022/01/15 02:09:20;;;;;;;0.47;0.47;;;2.80;99.90;2.70;97635.00;;;;5007387;28;20471;-74
2022/01/15 02:12:09;;;;;;;0.50;0.50;;;2.90;99.90;2.50;97638.00;;;;5004981;28;20990;-74
2022/01/15 02:14:59;;;;;;;0.40;0.40;;;2.90;99.90;2.40;97637.00;;;;5004970;28;20422;-74
2022/01/15 02:17:49;;;;;;;0.30;0.30;;;2.80;99.90;2.20;97627.00;;;;5005467;28;20432;-72
2022/01/15 02:23:50;;;;;;;0.60;0.50;;;2.70;99.90;2.10;97635.00;;;;5005744;28;20433;-74
2022/01/15 02:26:40;;;;;;;0.40;0.40;;;2.70;99.90;2.10;97638.00;;;;5005349;28;20457;-72
2022/01/15 02:29:29;;;;;;;0.80;0.50;;;2.60;99.90;2.10;97639.00;;;;5005890;28;20783;-73
2022/01/15 02:32:17;;;;;;;2.83;0.67;;;2.50;99.90;1.90;97629.00;;;;5005672;28;20809;-74
2022/01/15 02:35:08;;;;;;;0.40;0.40;;;2.40;99.90;1.70;97641.00;;;;5005031;28;20425;-73
2022/01/15 02:38:03;;;;;;;0.60;0.60;;;2.30;99.90;1.40;97635.00;;;;5005700;28;20433;-73
2022/01/15 02:40:52;;;;;;;0.60;0.53;;;2.20;99.90;1.10;97635.00;;;;5000976;28;20967;-73
2022/01/15 02:43:42;;;;;;;0.50;0.40;;;2.00;99.90;1.30;97647.00;;;;5005067;28;20460;-72
2022/01/15 02:49:33;;;;;;;0.60;0.60;;;1.80;99.90;1.20;97662.00;;;;4992184;28;20440;-75
2022/01/15 02:52:22;;;;;;;0.60;0.50;;;1.70;99.90;1.10;97665.00;;;;5005126;28;20460;-74
2022/01/15 02:55:13;;;;;;;0.50;0.50;;;1.60;99.90;1.10;97666.00;;;;5005537;28;20436;-73
2022/01/15 02:58:02;;;;;;;0.70;0.70;;;1.50;99.90;1.10;97674.00;;;;4996114;28;20936;-74
2022/01/15 03:00:53;;;;;;;5.40;1.17;;;1.50;99.90;1.20;97678.00;;;;5004918;28;20798;-73
2022/01/15 03:03:41;;;;;;;1.97;1.10;;;1.50;99.90;0.90;97671.00;;;;5003871;28;20413;-72
2022/01/15 03:06:31;;;;;;;0.63;0.63;;;1.50;99.90;1.00;97681.00;;;;5009124;28;20429;-73
2022/01/15 03:09:20;;;;;;;2.33;1.83;;;1.40;99.90;1.10;97686.00;;;;5008680;28;20433;-73
2022/01/15 03:12:10;;;;;;;3.17;1.93;;;1.40;99.90;1.10;97687.00;;;;5010682;28;20449;-74
2022/01/15 03:15:02;;;;;;;6.83;3.97;;;1.40;99.90;1.40;97693.00;;;;5008695;28;20451;-72
2022/01/15 03:17:52;;;;;;;1.10;1.10;;;1.50;99.90;0.90;97694.00;;;;5009374;28;20465;-74
2022/01/15 03:20:41;;;;;;;2.07;1.80;;;1.50;99.90;1.00;97683.00;;;;5008718;28;20576;-74
2022/01/15 03:23:30;;;;;;;5.97;2.50;;;1.40;99.90;1.30;97689.00;;;;5009200;28;20944;-72
2022/01/15 03:26:19;;;;;;;2.00;1.67;;;1.50;99.90;1.00;97696.00;;;;5007228;28;21266;-75
2022/01/15 03:29:10;;;;;;;3.07;2.40;;;1.50;99.90;1.10;97697.00;;;;5007351;28;20440;-74
2022/01/15 03:31:59;;;;;;;3.77;2.40;;;1.50;99.90;1.00;97700.00;;;;5008147;28;20445;-74
2022/01/15 03:34:49;;;;;;;4.23;3.47;;;1.50;99.90;1.10;97699.00;;;;5007934;28;20425;-72
2022/01/15 03:37:38;;;;;;;3.40;2.97;;;1.40;99.90;1.20;97697.00;;;;5007897;28;20441;-73
2022/01/15 03:40:27;;;;;;;2.97;2.43;;;1.40;99.90;0.90;97694.00;;;;5007390;28;20433;-72
2022/01/15 03:43:16;;;;;;;3.13;2.53;;;1.40;99.90;0.90;97696.00;;;;5004693;28;20433;-71
2022/01/15 03:46:06;;;;;;;3.47;3.07;;;1.40;99.90;1.00;97700.00;;;;5002480;28;20433;-73
2022/01/15 03:48:55;;;;;;;3.80;3.50;;;1.40;99.90;1.10;97698.00;;;;5003813;28;20421;-74
2022/01/15 03:51:45;;;;;;;7.47;4.10;;;1.40;99.90;1.10;97687.00;;;;5007999;28;20520;-74
2022/01/15 03:54:34;;;;;;;5.63;3.80;;;1.40;99.90;1.00;97698.00;;;;4996694;28;20433;-74
2022/01/15 03:57:23;;;;;;;4.13;3.73;;;1.40;99.90;1.20;97708.00;;;;5008620;28;20502;-74
2022/01/15 04:00:17;;;;;;;8.20;4.60;;;1.40;99.90;0.90;97701.00;;;;5009056;28;20818;-74
2022/01/15 04:03:07;;;;;;;9.33;4.30;;;1.40;99.90;0.90;97709.00;;;;5008274;28;20437;-75
2022/01/15 04:05:56;;;;;;;5.00;3.83;;;1.40;99.90;0.90;97718.00;;;;5002638;28;20863;-74
2022/01/15 04:08:44;;;;;;;4.60;3.70;;;1.30;99.90;0.80;97717.00;;;;5007483;28;20436;-74
2022/01/15 04:11:34;;;;;;;5.73;4.70;;;1.30;99.90;0.70;97706.00;;;;5006603;28;20583;-73
2022/01/15 04:14:23;;;;;;;4.67;3.80;;;1.20;99.90;0.40;97708.00;;;;5007834;28;20445;-74
2022/01/15 04:17:12;;;;;;;4.57;4.17;;;1.10;99.90;0.20;97718.00;;;;5007764;28;20426;-74
2022/01/15 04:20:02;;;;;;;6.67;4.37;;;1.00;99.90;0.40;97724.00;;;;5006742;28;20484;-72
2022/01/15 04:22:53;;;;;;;6.03;4.40;;;0.90;99.90;0.50;97733.00;;;;5007783;28;20964;-73
2022/01/15 04:25:42;;;;;;;5.50;4.27;;;0.90;99.90;0.30;97728.00;;;;5006450;28;20435;-75
2022/01/15 04:28:33;;;;;;;6.97;4.33;;;0.90;99.90;0.10;97734.00;;;;5007305;28;20425;-71
2022/01/15 04:31:22;;;;;;;4.70;3.97;;;0.80;99.90;0.00;97733.00;;;;5007224;28;20464;-75
2022/01/15 04:34:11;;;;;;;7.13;5.37;;;0.70;99.90;0.10;97734.00;;;;5007677;28;20828;-74
2022/01/15 04:37:07;;;;;;;7.13;3.70;;;0.60;99.90;0.00;97743.00;;;;5006446;28;20943;-73
2022/01/15 04:39:56;;;;;;;6.37;4.43;;;0.60;99.90;-0.10;97749.00;;;;5006520;28;20473;-73
2022/01/15 04:42:47;;;;;;;5.87;4.30;;;0.50;99.90;-0.20;97758.00;;;;5003760;28;20809;-72
2022/01/15 04:45:35;;;;;;;8.40;4.63;;;0.40;99.90;-0.20;97750.00;;;;5003486;28;20437;-73
2022/01/15 04:48:25;;;;;;;8.93;5.17;;;0.40;99.90;-0.10;97770.00;;;;5006150;28;20426;-74
2022/01/15 04:51:14;;;;;;;6.10;3.70;;;0.30;99.90;-0.40;97772.00;;;;5006875;28;20452;-74
2022/01/15 04:54:05;;;;;;;6.73;4.97;;;0.30;99.90;-0.80;97759.00;;;;5007220;28;20982;-74
2022/01/15 04:56:54;;;;;;;6.37;4.97;;;0.10;99.90;-0.70;97772.00;;;;5004560;28;20436;-74
2022/01/15 04:59:43;;;;;;;7.50;5.10;;;0.00;99.90;-0.60;97770.00;;;;5006820;28;20465;-72
2022/01/15 05:02:32;;;;;;;6.27;4.43;;;-0.10;99.90;-0.90;97771.00;;;;5007269;28;20835;-72
2022/01/15 05:05:21;;;;;;;7.97;5.30;;;-0.10;99.90;-0.90;97774.00;;;;5003853;28;20433;-73
2022/01/15 05:08:12;;;;;;;8.47;5.47;;;-0.30;99.90;-0.90;97769.00;;;;5006595;28;20441;-74
2022/01/15 05:11:12;;;;;;;5.93;5.27;;;-0.30;99.90;-0.80;97768.00;;;;5007468;28;20468;-72
2022/01/15 05:14:01;;;;;;;9.23;5.90;;;-0.30;99.90;-0.70;97768.00;;;;5006825;28;20439;-75
2022/01/15 05:16:49;;;;;;;4.57;3.90;;;-0.30;99.90;-1.20;97776.00;;;;5005862;28;20422;-73
2022/01/15 05:19:38;;;;;;;5.20;4.33;;;-0.40;99.90;-1.10;97780.00;;;;5007616;28;20464;-74
2022/01/15 05:22:27;;;;;;;10.23;5.80;;;-0.50;99.90;-0.90;97778.00;;;;5006085;28;20990;-73
2022/01/15 05:25:41;;;;;;;10.63;6.27;;;-0.50;99.90;-0.90;97778.00;;;;5004692;28;20505;-73
2022/01/15 05:28:31;;;;;;;7.67;5.57;;;-0.40;99.90;-1.00;97787.00;;;;5006620;28;20441;-73
2022/01/15 05:31:20;;;;;;;12.87;7.57;;;-0.40;99.90;-1.00;97780.00;;;;5006234;28;20471;-72
2022/01/15 05:34:10;;;;;;;19.20;10.20;;;-0.40;99.90;-1.10;97775.00;;;;5007158;28;20441;-73
2022/01/15 05:36:59;;;;;;;18.47;10.83;;;-0.40;99.90;-1.10;97785.00;;;;5007254;28;20435;-73
2022/01/15 05:39:48;;;;;;;20.13;11.30;;;-0.50;99.90;-1.30;97789.00;;;;5007178;28;20872;-73
2022/01/15 05:42:37;;;;;;;15.33;9.77;;;-0.60;99.90;-1.30;97790.00;;;;5004176;28;20445;-72
2022/01/15 05:45:28;;;;;;;10.70;8.07;;;-0.60;99.90;-1.30;97789.00;;;;4999102;28;20441;-71
2022/01/15 05:48:18;;;;;;;9.93;7.53;;;-0.70;99.90;-1.40;97797.00;;;;5005767;28;20434;-71
2022/01/15 05:51:06;;;;;;;9.63;6.83;;;-0.70;99.90;-1.40;97794.00;;;;5005474;28;20483;-72
2022/01/15 05:53:55;;;;;;;13.93;8.07;;;-0.70;99.90;-1.20;97802.00;;;;5006369;28;20434;-74
2022/01/15 05:56:44;;;;;;;8.30;5.63;;;-0.70;99.90;-1.10;97809.00;;;;5005741;28;20441;-73
2022/01/15 05:59:34;;;;;;;12.53;7.73;;;-0.70;99.90;-1.10;97811.00;;;;5006580;28;20827;-73
2022/01/15 06:02:24;;;;;;;12.57;8.43;;;-0.60;99.90;-1.10;97811.00;;;;5006781;28;20449;-73
2022/01/15 06:05:13;;;;;;;10.90;8.30;;;-0.60;99.90;-1.20;97821.00;;;;5005050;28;20429;-72
2022/01/15 06:08:02;;;;;;;16.93;8.20;;;-0.50;99.90;-1.40;97811.00;;;;5005364;28;20437;-71
2022/01/15 06:10:52;;;;;;;12.57;8.07;;;-0.70;99.90;-1.40;97821.00;;;;5006247;28;20429;-70
2022/01/15 06:13:40;;;;;;;11.43;7.60;;;-0.50;99.90;-1.30;97831.00;;;;5006150;28;20430;-74
2022/01/15 06:16:29;;;;;;;10.17;7.87;;;-1.20;99.90;-1.50;97827.00;;;;5006288;28;20433;-71
2022/01/15 06:19:19;;;;;;;13.23;7.40;;;-0.80;99.90;-1.60;97828.00;;;;5006973;28;20984;-73
2022/01/15 06:22:08;;;;;;;9.13;6.37;;;-0.90;99.90;-1.60;97831.00;;;;5001793;28;20472;-71
2022/01/15 06:24:57;;;;;;;8.73;6.47;;;-0.90;99.90;-1.60;97831.00;;;;5004207;28;20854;-73
2022/01/15 06:27:48;;;;;;;12.57;8.27;;;-0.90;99.90;-1.60;97827.00;;;;5006849;28;20426;-73
2022/01/15 06:30:39;;;;;;;9.30;6.77;;;-1.00;99.90;-1.70;97841.00;;;;5003374;28;20967;-72
2022/01/15 06:33:28;;;;;;;13.50;8.73;;;-1.00;99.90;-1.80;97829.00;;;;5004383;28;20441;-72
2022/01/15 06:36:18;;;;;;;12.77;6.87;;;-1.10;99.90;-2.10;97827.00;;;;5003338;28;20967;-72
2022/01/15 06:39:07;;;;;;;9.63;6.70;;;-1.20;99.90;-2.00;97825.00;;;;5008354;28;21344;-73
2022/01/15 06:41:56;;;;;;;9.80;6.20;;;-1.30;99.90;-1.90;97834.00;;;;5006995;28;20456;-72
2022/01/15 06:44:44;;;;;;;20.87;14.03;;;-1.30;99.90;-1.80;97842.00;;;;5006047;28;20848;-71
2022/01/15 06:47:33;;;;;;;8.80;7.67;;;-1.30;99.90;-1.90;97839.00;;;;5004542;28;20417;-73
2022/01/15 06:50:24;;;;;;;7.73;6.30;;;-1.30;99.90;-2.20;97841.00;;;;5008351;28;20803;-71
2022/01/15 06:53:14;;;;;;;8.97;6.60;;;-1.50;99.90;-2.00;97844.00;;;;4996093;28;20504;-72
2022/01/15 06:56:04;;;;;;;7.33;5.77;;;-1.40;99.90;-2.00;97844.00;;;;5001257;28;20440;-72
2022/01/15 06:58:53;;;;;;;9.73;6.90;;;-1.30;99.90;-2.10;97844.00;;;;4996478;28;20432;-73
2022/01/15 07:01:42;;;;;;;7.93;6.00;;;-1.30;99.90;-2.20;97840.00;;;;4999441;28;20456;-73
2022/01/15 07:04:30;;;;;;;6.20;4.33;;;-1.30;99.90;-2.50;97837.00;;;;5009886;28;20447;-71
2022/01/15 07:07:19;;;;;;;9.30;6.60;;;-1.30;99.90;-2.20;97840.00;;;;5009262;28;20440;-72
2022/01/15 07:10:10;;;;;;;10.80;8.17;;;-1.40;99.90;-1.70;97851.00;;;;5000585;28;20471;-73
2022/01/15 07:12:59;;;;;;;8.07;5.73;;;-1.40;99.90;-1.60;97848.00;;;;5008669;28;20457;-73
2022/01/15 07:15:48;;;;;;;8.43;6.00;;;-1.30;99.90;-1.60;97855.00;;;;5008442;28;20440;-73
2022/01/15 07:18:37;;;;;;;7.47;6.07;;;-1.20;99.90;-1.70;97850.00;;;;4999073;28;20440;-72
2022/01/15 07:21:29;;;;;;;7.53;5.33;;;-1.20;99.90;-2.00;97851.00;;;;5008454;28;20495;-73
2022/01/15 07:24:20;;;;;;;9.87;6.47;;;-1.40;99.90;-2.00;97847.00;;;;5007333;28;21008;-73
2022/01/15 07:27:11;;;;;;;8.73;6.90;;;-1.20;99.90;-1.90;97865.00;;;;5006449;28;20443;-73
2022/01/15 07:30:01;;;;;;;6.43;5.83;;;-1.20;99.90;-1.80;97867.00;;;;5007887;28;20885;-73
2022/01/15 07:32:50;;;;;;;8.87;6.30;;;-1.20;99.90;-1.50;97860.00;;;;5008546;28;20444;-73
2022/01/15 07:35:39;;;;;;;14.37;6.90;;;-1.20;99.90;-1.80;97855.00;;;;5008491;28;20431;-72
2022/01/15 07:38:29;;;;;;;5.90;4.87;;;-1.10;99.90;-2.00;97846.00;;;;5008841;28;20456;-71
2022/01/15 07:41:17;;;;;;;9.60;6.70;;;-1.10;99.90;-1.70;97856.00;;;;5006316;28;20469;-72
2022/01/15 07:44:08;;;;;;;7.20;6.30;;;-1.10;99.90;-1.80;97846.00;;;;5003870;28;20445;-73
2022/01/15 07:46:57;;;;;;;8.83;6.73;;;-1.10;99.90;-1.80;97849.00;;;;4988553;28;21004;-72
2022/01/15 07:49:46;;;;;;;8.57;6.40;;;-1.00;99.90;-1.90;97844.00;;;;4984404;28;20546;-71
2022/01/15 07:52:35;;;;;;;10.87;6.87;;;-1.10;99.90;-1.90;97841.00;;;;4984497;28;20967;-73
2022/01/15 07:55:25;;;;;;;10.87;6.87;;;-1.10;99.90;-2.00;97843.00;;;;4983578;28;20603;-69
2022/01/15 07:58:22;;;;;;;10.43;7.27;;;-1.10;99.90;-2.10;97852.00;;;;4985011;28;21416;-72
2022/01/15 08:01:13;;;;;;;10.97;7.33;;;-1.20;99.90;-1.70;97842.00;;;;4985116;28;20480;-69
2022/01/15 08:04:03;;;;;;;11.97;8.70;;;0.30;99.90;-1.60;97855.00;;;;4985399;28;20786;-72
2022/01/15 08:06:52;;;;;;;12.27;8.67;;;0.70;99.90;-1.40;97853.00;;;;4981697;28;20446;-71
2022/01/15 08:09:41;;;;;;;10.93;8.70;;;-1.00;99.90;-1.30;97846.00;;;;4983449;28;20865;-72
2022/01/15 08:12:30;;;;;;;11.57;7.90;;;-0.90;99.90;-1.10;97852.00;;;;4981853;28;20838;-73
2022/01/15 08:15:21;;;;;;;8.77;7.00;;;-0.80;99.90;-0.90;97863.00;;;;4978784;28;20498;-70
2022/01/15 08:18:12;;;;;;;12.23;7.80;;;-0.70;99.90;-0.90;97856.00;;;;4985070;28;20490;-73
2022/01/15 08:21:05;;;;;;;10.30;7.33;;;-0.50;99.90;-0.80;97859.00;;;;4984228;28;21082;-71
2022/01/15 08:23:54;;;;;;;9.13;7.77;;;-0.40;99.90;-0.70;97859.00;;;;4982542;28;20437;-72
2022/01/15 08:26:42;;;;;;;12.33;7.97;;;-0.30;99.90;-0.70;97850.00;;;;4978101;28;20565;-72
2022/01/15 08:29:32;;;;;;;9.63;7.37;;;-0.30;99.90;-0.80;97844.00;;;;4984561;28;20453;-72
2022/01/15 08:32:20;;;;;;;11.20;7.50;;;-0.20;99.90;-0.50;97850.00;;;;4984992;28;20885;-72
2022/01/15 08:35:12;;;;;;;12.10;8.73;;;-0.10;99.90;-0.50;97851.00;;;;4983441;28;20438;-71
2022/01/15 08:38:02;;;;;;;11.67;6.87;;;0.00;99.90;-0.50;97845.00;;;;4981405;28;20446;-72
2022/01/15 08:40:51;;;;;;;10.97;7.57;;;0.00;99.90;-0.50;97842.00;;;;4983695;28;20472;-71
2022/01/15 08:43:41;;;;;;;9.83;7.30;;;0.00;99.90;-0.50;97842.00;;;;4982921;28;21108;-72
2022/01/15 08:46:30;;;;;;;13.83;7.60;;;0.10;99.90;-0.20;97840.00;;;;4982110;28;20448;-70
2022/01/15 08:49:19;;;;;;;14.37;10.23;;;0.10;99.90;-0.10;97846.00;;;;4984366;28;20483;-74
2022/01/15 08:52:10;;;;;;;14.87;9.07;;;0.20;99.90;0.10;97847.00;;;;4983016;28;20461;-73
2022/01/15 08:54:59;;;;;;;11.37;8.50;;;0.30;99.90;0.10;97845.00;;;;4984004;28;20495;-73
2022/01/15 08:57:48;;;;;;;13.43;9.00;;;0.50;99.90;0.20;97837.00;;;;4985001;28;20445;-73
2022/01/15 09:00:37;;;;;;;12.70;9.03;;;0.50;99.90;0.30;97848.00;;;;4984524;28;20522;-72
2022/01/15 09:03:26;;;;;;;14.50;9.57;;;0.60;99.90;0.40;97841.00;;;;4985184;28;20441;-72
2022/01/15 09:06:16;;;;;;;14.00;8.60;;;-0.10;99.90;0.60;97834.00;;;;4981536;28;20524;-76
2022/01/15 09:09:06;;;;;;;13.47;8.90;;;0.80;99.90;0.70;97844.00;;;;4983587;28;20465;-73
2022/01/15 09:11:56;;;;;;;14.93;9.13;;;0.90;99.90;0.80;97847.00;;;;4984705;28;20461;-74
2022/01/15 09:14:46;;;;;;;12.37;8.03;;;1.00;99.90;1.10;97839.00;;;;4984679;28;20437;-73
2022/01/15 09:17:36;;;;;;;13.27;9.37;;;1.20;99.90;1.20;97840.00;;;;4984726;28;20432;-73
2022/01/15 09:20:25;;;;;;;13.87;9.57;;;1.30;99.90;1.20;97833.00;;;;4984817;28;21263;-73
2022/01/15 09:23:15;;;;;;;13.00;10.30;;;1.50;99.90;1.50;97836.00;;;;4986542;28;20445;-73
2022/01/15 09:26:07;;;;;;;13.27;9.20;;;1.60;99.90;1.50;97832.00;;;;4979152;28;20433;-73
2022/01/15 09:32:04;;;;;;;17.73;8.33;;;1.90;99.90;2.20;97838.00;;;;4984305;28;20457;-71
2022/01/15 09:34:53;;;;;;;14.43;8.43;;;2.10;99.90;2.50;97834.00;;;;4982293;28;20441;-70
2022/01/15 09:37:42;;;;;;;13.77;9.23;;;2.30;99.90;2.50;97828.00;;;;4983639;28;21213;-71
2022/01/15 09:40:31;;;;;;;13.07;9.17;;;2.50;99.90;2.80;97832.00;;;;4980768;28;20964;-73
2022/01/15 09:43:22;;;;;;;10.90;8.73;;;2.60;99.90;2.70;97833.00;;;;4982113;28;20529;-74
2022/01/15 09:46:12;;;;;;;11.03;8.20;;;2.80;99.90;3.00;97831.00;;;;4980583;28;20450;-72
2022/01/15 09:49:02;;;;;;;9.47;7.53;;;3.00;99.90;3.40;97836.00;;;;4986320;28;20444;-74
2022/01/15 09:51:52;;;;;;;10.33;7.70;;;3.10;99.90;3.70;97844.00;;;;4981367;28;20531;-73
2022/01/15 09:54:42;;;;;;;15.33;10.33;;;3.30;99.90;4.00;97839.00;;;;4985451;28;20536;-74
2022/01/15 09:57:31;;;;;;;12.30;9.10;;;3.60;99.90;4.30;97844.00;;;;4979533;28;20465;-74
2022/01/15 10:00:24;;;;;;;10.10;7.87;;;3.80;99.90;4.60;97843.00;;;;4983877;28;20589;-73
2022/01/15 10:03:13;;;;;;;13.27;7.90;;;4.00;99.90;4.70;97847.00;;;;4984965;28;20220;-75
2022/01/15 10:06:05;;;;;;;12.70;8.40;;;4.30;99.90;4.90;97833.00;;;;4981136;28;20229;-74
2022/01/15 10:09:03;;;;;;;10.10;8.43;;;4.50;99.90;5.20;97841.00;;;;4985130;28;20830;-74
2022/01/15 10:11:52;;;;;;;13.13;9.43;;;4.70;99.90;5.30;97838.00;;;;4982332;28;20279;-73
2022/01/15 10:14:44;;;;;;;13.33;9.20;;;4.90;99.90;5.30;97831.00;;;;4979609;28;20297;-73
2022/01/15 10:17:36;;;;;;;12.07;8.23;;;5.00;99.90;5.70;97833.00;;;;4981477;28;20229;-75
2022/01/15 10:20:26;;;;;;;13.83;9.67;;;5.10;99.90;5.90;97834.00;;;;4985407;28;20218;-72
2022/01/15 10:23:20;;;;;;;13.20;8.87;;;5.30;99.90;6.00;97835.00;;;;4980718;28;20236;-73
2022/01/15 10:26:15;;;;;;;12.53;7.70;;;5.50;99.90;6.30;97824.00;;;;4983297;28;20267;-74
2022/01/15 10:29:07;;;;;;;14.53;8.37;;;5.70;99.90;6.40;97832.00;;;;4983746;28;20560;-73
2022/01/15 10:31:56;;;;;;;9.97;7.33;;;5.90;99.90;6.70;97830.00;;;;4979120;28;20709;-74
2022/01/15 10:34:46;;;;;;;10.27;7.37;;;6.20;99.90;6.90;97834.00;;;;4983571;28;20339;-73
2022/01/15 10:37:47;;;;;;;13.67;8.47;;;6.70;99.90;7.70;97839.00;;;;4984638;28;20210;-76
2022/01/15 10:40:42;;;;;;;17.83;10.13;;;7.50;99.90;8.30;97839.00;;;;4980296;28;20343;-76
2022/01/15 10:43:34;;;;;;;17.73;10.40;;;8.30;99.90;8.90;97845.00;;;;4982364;28;20214;-75
2022/01/15 10:46:35;;;;;;;11.63;9.30;;;9.00;99.90;8.70;97842.00;;;;4988155;28;20214;-77
2022/01/15 10:49:25;;;;;;;13.43;8.67;;;9.50;99.90;9.10;97833.00;;;;4988786;28;20210;-76
2022/01/15 10:52:20;;;;;;;11.00;7.57;;;9.80;99.90;9.00;97824.00;;;;4985931;28;20214;-77
2022/01/15 10:55:12;;;;;;;10.60;8.00;;;10.00;98.40;9.40;97831.00;;;;4990445;28;20274;-75
2022/01/15 10:58:03;;;;;;;11.07;7.60;;;10.10;97.90;9.60;97819.00;;;;4984148;28;21334;-76
2022/01/15 11:00:53;;;;;;;12.80;9.00;;;10.30;94.60;9.50;97821.00;;;;4984954;28;20220;-74
2022/01/15 11:03:44;;;;;;;12.00;8.50;;;10.40;94.10;10.40;97820.00;;;;4987372;28;20209;-75
2022/01/15 11:06:36;;;;;;;17.47;10.07;;;10.50;95.30;10.50;97810.00;;;;4985981;28;20253;-75
2022/01/15 11:09:35;;;;;;;9.67;8.00;;;10.80;94.30;10.20;97803.00;;;;4990490;28;20218;-76
2022/01/15 11:12:27;;;;;;;13.73;8.90;;;11.00;91.60;9.80;97801.00;;;;4993641;28;21768;-76
2022/01/15 11:15:17;;;;;;;15.27;10.67;;;10.90;91.00;9.80;97794.00;;;;4993259;28;20214;-75
2022/01/15 11:18:06;;;;;;;11.33;8.57;;;11.00;90.20;10.10;97804.00;;;;4993958;28;20220;-76
2022/01/15 11:20:58;;;;;;;10.40;7.97;;;11.00;90.10;10.90;97804.00;;;;4989929;28;20621;-77
2022/01/15 11:23:49;;;;;;;13.40;9.23;;;11.10;90.10;10.90;97798.00;;;;4993400;28;22589;-75
2022/01/15 11:26:40;;;;;;;9.90;7.93;;;11.20;88.60;10.90;97794.00;;;;4993352;28;20214;-77
2022/01/15 11:29:30;;;;;;;10.60;7.43;;;11.20;87.90;11.00;97800.00;;;;4993132;28;20206;-75
2022/01/15 11:32:19;;;;;;;12.10;8.57;;;11.30;87.80;11.20;97794.00;;;;5000769;28;20329;-76
2022/01/15 11:35:10;;;;;;;12.63;8.57;;;11.50;85.80;11.30;97787.00;;;;4995596;28;20685;-76
2022/01/15 11:37:59;;;;;;;10.13;7.63;;;11.70;85.40;10.10;97782.00;;;;4990944;28;20881;-76
2022/01/15 11:40:53;;;;;;;12.30;8.07;;;11.90;82.20;9.10;97761.00;;;;4989104;28;20301;-75
2022/01/15 11:43:43;;;;;;;17.40;9.67;;;11.70;80.60;10.50;97765.00;;;;4992494;28;20320;-76
2022/01/15 11:46:34;;;;;;;8.63;6.87;;;11.70;80.80;10.50;97747.00;;;;4987487;28;20210;-76
2022/01/15 11:49:42;;;;;;;13.50;9.23;;;11.80;80.70;11.00;97770.00;;;;4987336;28;22345;-76
2022/01/15 11:52:34;;;;;;;9.13;7.43;;;11.70;80.70;10.70;97759.00;;;;4985443;28;20234;-77
2022/01/15 11:55:25;;;;;;;9.77;7.33;;;11.80;79.80;10.90;97767.00;;;;4988498;28;20582;-77
2022/01/15 11:58:14;;;;;;;10.07;6.67;;;12.00;79.10;10.20;97748.00;;;;4992402;28;20293;-75
2022/01/15 12:01:05;;;;;;;10.33;8.00;;;12.30;76.90;11.00;97748.00;;;;4996947;28;20230;-75
2022/01/15 12:04:26;;;;;;;10.03;7.17;;;12.30;76.40;11.30;97755.00;;;;4994586;28;20255;-75
2022/01/15 12:07:23;;;;;;;9.00;7.37;;;12.50;75.30;12.00;97750.00;;;;4999751;28;20241;-76
2022/01/15 12:10:13;;;;;;;10.07;7.43;;;12.60;75.00;12.20;97742.00;;;;5002334;28;20212;-77
2022/01/15 12:13:12;;;;;;;13.50;8.37;;;13.00;74.70;12.50;97739.00;;;;4994945;28;20210;-78
2022/01/15 12:16:36;;;;;;;9.60;7.57;;;13.40;73.30;13.10;97737.00;;;;4986355;28;20199;-77
2022/01/15 12:19:37;;;;;;;12.13;7.80;;;13.60;73.50;11.40;97717.00;;;;4987641;28;20665;-78
2022/01/15 12:22:36;;;;;;;8.93;7.53;;;14.00;68.80;10.70;97704.00;;;;4986361;28;20556;-73
2022/01/15 12:25:31;;;;;;;11.80;7.80;;;13.70;68.50;12.30;97714.00;;;;4988124;28;20275;-77
2022/01/15 12:28:27;;;;;;;8.77;7.00;;;13.60;69.90;12.50;97712.00;;;;4996545;28;20292;-75
2022/01/15 12:31:18;;;;;;;11.33;7.53;;;13.90;69.30;11.10;97693.00;;;;4993293;28;20238;-75
2022/01/15 12:34:09;;;;;;;8.57;6.97;;;13.60;68.10;11.10;97696.00;;;;4998298;28;20202;-75
2022/01/15 12:36:58;;;;;;;8.10;6.67;;;13.50;67.20;12.60;97710.00;;;;4994839;28;20222;-76
2022/01/15 12:39:47;;;;;;;9.03;6.90;;;13.60;67.60;11.80;97701.00;;;;4995752;28;20325;-76
2022/01/15 12:42:35;;;;;;;10.87;7.53;;;13.90;66.60;11.60;97693.00;;;;4990735;28;20276;-76
2022/01/15 12:45:25;;;;;;;11.37;7.90;;;14.10;66.10;12.80;97698.00;;;;5001848;28;20206;-75
2022/01/15 12:48:17;;;;;;;10.93;8.77;;;14.20;65.70;13.00;97698.00;;;;5004935;28;20206;-78
2022/01/15 12:51:10;;;;;;;12.07;7.80;;;14.40;65.10;11.10;97683.00;;;;5017915;28;20236;-78
2022/01/15 12:54:00;;;;;;;8.83;7.67;;;14.20;64.20;11.40;97678.00;;;;5008619;28;20205;-75
2022/01/15 12:56:49;;;;;;;10.47;7.20;;;14.00;65.00;11.00;97689.00;;;;5006763;28;20209;-75
2022/01/15 12:59:39;;;;;;;13.63;7.53;;;13.50;66.20;11.30;97690.00;;;;5004112;28;20206;-78
2022/01/15 13:02:28;;;;;;;13.87;7.17;;;13.50;66.00;12.70;97694.00;;;;5008182;28;20233;-77
2022/01/15 13:05:17;;;;;;;10.87;7.03;;;13.70;66.00;13.40;97687.00;;;;5012270;28;20574;-78